sensor_id;sensor_type;location;lat;lon;timestamp;temperature;humidity
5808;DHT22;2930;42.678;23.312;2022-09-01T00:02:07;19.30;85.00
5808;DHT22;2930;42.678;23.312;2022-09-01T00:04:37;19.30;85.60
5808;DHT22;2930;42.678;23.312;2022-09-01T00:07:07;19.30;85.50
5808;DHT22;2930;42.678;23.312;2022-09-01T00:09:34;19.30;85.30
5808;DHT22;2930;42.678;23.312;2022-09-01T00:12:01;19.20;85.30
5808;DHT22;2930;42.678;23.312;2022-09-01T00:14:30;19.20;85.20
5808;DHT22;2930;42.678;23.312;2022-09-01T00:17:02;19.20;85.30
5808;DHT22;2930;42.678;23.312;2022-09-01T00:19:28;19.10;84.80
5808;DHT22;2930;42.678;23.312;2022-09-01T00:21:55;19.10;85.30
5808;DHT22;2930;42.678;23.312;2022-09-01T00:24:21;19.10;85.40
5808;DHT22;2930;42.678;23.312;2022-09-01T00:26:47;19.10;85.70
5808;DHT22;2930;42.678;23.312;2022-09-01T00:29:13;19.10;85.90
5808;DHT22;2930;42.678;23.312;2022-09-01T00:31:39;19.10;85.90
5808;DHT22;2930;42.678;23.312;2022-09-01T00:34:05;19.00;86.20
5808;DHT22;2930;42.678;23.312;2022-09-01T00:36:31;19.00;86.50
5808;DHT22;2930;42.678;23.312;2022-09-01T00:38:57;19.00;86.20
5808;DHT22;2930;42.678;23.312;2022-09-01T00:41:25;19.00;86.10
5808;DHT22;2930;42.678;23.312;2022-09-01T00:43:54;18.90;86.30
5808;DHT22;2930;42.678;23.312;2022-09-01T00:46:21;18.90;86.90
5808;DHT22;2930;42.678;23.312;2022-09-01T00:48:52;18.90;87.80
5808;DHT22;2930;42.678;23.312;2022-09-01T00:51:18;18.90;87.80
5808;DHT22;2930;42.678;23.312;2022-09-01T00:53:44;18.90;87.70
5808;DHT22;2930;42.678;23.312;2022-09-01T00:56:12;18.80;87.50
5808;DHT22;2930;42.678;23.312;2022-09-01T00:58:39;18.80;88.10
5808;DHT22;2930;42.678;23.312;2022-09-01T01:01:07;18.80;87.50
5808;DHT22;2930;42.678;23.312;2022-09-01T01:03:33;18.80;87.10
5808;DHT22;2930;42.678;23.312;2022-09-01T01:06:03;18.70;87.70
5808;DHT22;2930;42.678;23.312;2022-09-01T01:08:34;18.70;87.40
5808;DHT22;2930;42.678;23.312;2022-09-01T01:11:06;18.70;87.70
5808;DHT22;2930;42.678;23.312;2022-09-01T01:13:47;18.70;87.90
5808;DHT22;2930;42.678;23.312;2022-09-01T01:16:14;18.60;87.90
5808;DHT22;2930;42.678;23.312;2022-09-01T01:18:41;18.60;88.30
5808;DHT22;2930;42.678;23.312;2022-09-01T01:21:14;18.60;88.30
5808;DHT22;2930;42.678;23.312;2022-09-01T01:26:29;18.50;88.90
5808;DHT22;2930;42.678;23.312;2022-09-01T01:28:54;18.50;88.40
5808;DHT22;2930;42.678;23.312;2022-09-01T01:31:20;18.40;88.50
5808;DHT22;2930;42.678;23.312;2022-09-01T01:33:53;18.40;88.80
5808;DHT22;2930;42.678;23.312;2022-09-01T01:36:23;18.40;88.70
5808;DHT22;2930;42.678;23.312;2022-09-01T01:38:58;18.30;88.70
5808;DHT22;2930;42.678;23.312;2022-09-01T01:41:26;18.20;88.00
5808;DHT22;2930;42.678;23.312;2022-09-01T01:43:58;18.10;88.00
5808;DHT22;2930;42.678;23.312;2022-09-01T01:46:25;18.00;87.80
5808;DHT22;2930;42.678;23.312;2022-09-01T01:48:52;18.00;88.20
5808;DHT22;2930;42.678;23.312;2022-09-01T01:51:19;18.00;87.90
5808;DHT22;2930;42.678;23.312;2022-09-01T01:53:46;18.00;88.20
5808;DHT22;2930;42.678;23.312;2022-09-01T01:56:18;18.00;87.50
5808;DHT22;2930;42.678;23.312;2022-09-01T01:58:44;18.00;88.00
5808;DHT22;2930;42.678;23.312;2022-09-01T02:01:10;17.90;87.40
5808;DHT22;2930;42.678;23.312;2022-09-01T02:03:38;17.90;88.00
5808;DHT22;2930;42.678;23.312;2022-09-01T02:06:06;17.90;88.20
5808;DHT22;2930;42.678;23.312;2022-09-01T02:08:35;17.90;87.70
5808;DHT22;2930;42.678;23.312;2022-09-01T02:11:03;17.90;88.60
5808;DHT22;2930;42.678;23.312;2022-09-01T02:13:30;17.90;88.40
5808;DHT22;2930;42.678;23.312;2022-09-01T02:15:59;17.90;89.10
5808;DHT22;2930;42.678;23.312;2022-09-01T02:18:30;17.90;88.90
5808;DHT22;2930;42.678;23.312;2022-09-01T02:20:58;17.90;88.80
5808;DHT22;2930;42.678;23.312;2022-09-01T02:23:25;17.90;89.50
5808;DHT22;2930;42.678;23.312;2022-09-01T02:25:55;17.90;89.30
5808;DHT22;2930;42.678;23.312;2022-09-01T02:28:22;17.90;89.00
5808;DHT22;2930;42.678;23.312;2022-09-01T02:30:50;17.90;89.00
5808;DHT22;2930;42.678;23.312;2022-09-01T02:33:21;17.90;88.60
5808;DHT22;2930;42.678;23.312;2022-09-01T02:35:49;17.90;88.50
5808;DHT22;2930;42.678;23.312;2022-09-01T02:38:16;17.90;88.70
5808;DHT22;2930;42.678;23.312;2022-09-01T02:40:46;17.80;88.70
5808;DHT22;2930;42.678;23.312;2022-09-01T02:43:14;17.80;88.40
5808;DHT22;2930;42.678;23.312;2022-09-01T02:45:44;17.80;88.60
5808;DHT22;2930;42.678;23.312;2022-09-01T02:48:11;17.80;88.90
5808;DHT22;2930;42.678;23.312;2022-09-01T02:50:38;17.80;88.90
5808;DHT22;2930;42.678;23.312;2022-09-01T02:53:05;17.80;88.90
5808;DHT22;2930;42.678;23.312;2022-09-01T02:55:35;17.80;89.10
5808;DHT22;2930;42.678;23.312;2022-09-01T02:58:01;17.80;89.10
5808;DHT22;2930;42.678;23.312;2022-09-01T03:00:27;17.80;89.20
5808;DHT22;2930;42.678;23.312;2022-09-01T03:03:02;17.80;89.20
5808;DHT22;2930;42.678;23.312;2022-09-01T03:05:29;17.80;89.20
5808;DHT22;2930;42.678;23.312;2022-09-01T03:07:58;17.80;89.20
5808;DHT22;2930;42.678;23.312;2022-09-01T03:10:46;17.80;89.10
5808;DHT22;2930;42.678;23.312;2022-09-01T03:13:13;17.80;89.50
5808;DHT22;2930;42.678;23.312;2022-09-01T03:15:41;17.80;89.40
5808;DHT22;2930;42.678;23.312;2022-09-01T03:18:09;17.80;89.70
5808;DHT22;2930;42.678;23.312;2022-09-01T03:20:37;17.80;89.80
5808;DHT22;2930;42.678;23.312;2022-09-01T03:23:06;17.70;89.60
5808;DHT22;2930;42.678;23.312;2022-09-01T03:25:35;17.80;89.40
5808;DHT22;2930;42.678;23.312;2022-09-01T03:28:01;17.70;89.30
5808;DHT22;2930;42.678;23.312;2022-09-01T03:30:33;17.70;89.20
5808;DHT22;2930;42.678;23.312;2022-09-01T03:33:01;17.70;88.90
5808;DHT22;2930;42.678;23.312;2022-09-01T03:35:28;17.70;89.80
5808;DHT22;2930;42.678;23.312;2022-09-01T03:37:57;17.70;90.20
5808;DHT22;2930;42.678;23.312;2022-09-01T03:40:28;17.70;90.40
5808;DHT22;2930;42.678;23.312;2022-09-01T03:42:57;17.70;89.90
5808;DHT22;2930;42.678;23.312;2022-09-01T03:45:23;17.60;89.60
5808;DHT22;2930;42.678;23.312;2022-09-01T03:47:51;17.60;89.60
5808;DHT22;2930;42.678;23.312;2022-09-01T03:50:19;17.60;89.20
5808;DHT22;2930;42.678;23.312;2022-09-01T03:52:51;17.60;89.50
5808;DHT22;2930;42.678;23.312;2022-09-01T03:55:20;17.50;89.10
5808;DHT22;2930;42.678;23.312;2022-09-01T03:57:55;17.50;89.10
5808;DHT22;2930;42.678;23.312;2022-09-01T04:00:24;17.50;89.10
5808;DHT22;2930;42.678;23.312;2022-09-01T04:02:53;17.50;90.00
5808;DHT22;2930;42.678;23.312;2022-09-01T04:05:23;17.50;90.70
5808;DHT22;2930;42.678;23.312;2022-09-01T04:07:54;17.50;90.90
5808;DHT22;2930;42.678;23.312;2022-09-01T04:10:19;17.50;90.30
5808;DHT22;2930;42.678;23.312;2022-09-01T04:12:47;17.50;90.90
5808;DHT22;2930;42.678;23.312;2022-09-01T04:15:14;17.50;90.80
5808;DHT22;2930;42.678;23.312;2022-09-01T04:17:45;17.50;90.60
5808;DHT22;2930;42.678;23.312;2022-09-01T04:20:29;17.50;90.50
5808;DHT22;2930;42.678;23.312;2022-09-01T04:23:05;17.40;90.50
5808;DHT22;2930;42.678;23.312;2022-09-01T04:25:36;17.40;90.60
5808;DHT22;2930;42.678;23.312;2022-09-01T04:28:03;17.40;91.40
5808;DHT22;2930;42.678;23.312;2022-09-01T04:30:38;17.40;91.50
5808;DHT22;2930;42.678;23.312;2022-09-01T04:33:06;17.50;91.50
5808;DHT22;2930;42.678;23.312;2022-09-01T04:35:37;17.40;91.30
5808;DHT22;2930;42.678;23.312;2022-09-01T04:38:02;17.40;91.00
5808;DHT22;2930;42.678;23.312;2022-09-01T04:40:28;17.40;91.50
5808;DHT22;2930;42.678;23.312;2022-09-01T04:42:54;17.40;91.20
5808;DHT22;2930;42.678;23.312;2022-09-01T04:45:20;17.30;91.10
5808;DHT22;2930;42.678;23.312;2022-09-01T04:47:52;17.30;90.80
5808;DHT22;2930;42.678;23.312;2022-09-01T04:50:18;17.30;91.00
5808;DHT22;2930;42.678;23.312;2022-09-01T04:52:45;17.30;91.10
5808;DHT22;2930;42.678;23.312;2022-09-01T04:55:13;17.40;91.10
5808;DHT22;2930;42.678;23.312;2022-09-01T04:57:50;17.40;91.30
5808;DHT22;2930;42.678;23.312;2022-09-01T05:00:20;17.40;90.50
5808;DHT22;2930;42.678;23.312;2022-09-01T05:02:55;17.40;90.70
5808;DHT22;2930;42.678;23.312;2022-09-01T05:05:35;17.50;90.90
5808;DHT22;2930;42.678;23.312;2022-09-01T05:08:08;17.50;90.90
5808;DHT22;2930;42.678;23.312;2022-09-01T05:10:42;17.50;91.30
5808;DHT22;2930;42.678;23.312;2022-09-01T05:13:10;17.50;90.80
5808;DHT22;2930;42.678;23.312;2022-09-01T05:15:39;17.50;91.20
5808;DHT22;2930;42.678;23.312;2022-09-01T05:18:18;17.50;90.70
5808;DHT22;2930;42.678;23.312;2022-09-01T05:20:53;17.60;90.00
5808;DHT22;2930;42.678;23.312;2022-09-01T05:23:20;17.60;90.50
5808;DHT22;2930;42.678;23.312;2022-09-01T05:25:50;17.70;90.30
5808;DHT22;2930;42.678;23.312;2022-09-01T05:28:20;17.70;90.00
5808;DHT22;2930;42.678;23.312;2022-09-01T05:30:49;17.80;91.10
5808;DHT22;2930;42.678;23.312;2022-09-01T05:33:19;17.90;90.90
5808;DHT22;2930;42.678;23.312;2022-09-01T05:35:54;17.90;90.70
5808;DHT22;2930;42.678;23.312;2022-09-01T05:38:21;17.90;89.90
5808;DHT22;2930;42.678;23.312;2022-09-01T05:41:03;18.00;90.60
5808;DHT22;2930;42.678;23.312;2022-09-01T05:43:33;18.10;89.60
5808;DHT22;2930;42.678;23.312;2022-09-01T05:45:59;18.10;90.90
5808;DHT22;2930;42.678;23.312;2022-09-01T05:48:26;18.20;90.50
5808;DHT22;2930;42.678;23.312;2022-09-01T05:50:56;18.30;90.50
5808;DHT22;2930;42.678;23.312;2022-09-01T05:53:27;18.30;90.20
5808;DHT22;2930;42.678;23.312;2022-09-01T05:55:55;18.40;89.90
5808;DHT22;2930;42.678;23.312;2022-09-01T05:58:23;18.50;90.10
5808;DHT22;2930;42.678;23.312;2022-09-01T06:00:51;18.60;90.30
5808;DHT22;2930;42.678;23.312;2022-09-01T06:03:19;18.60;90.10
5808;DHT22;2930;42.678;23.312;2022-09-01T06:05:47;18.70;90.50
5808;DHT22;2930;42.678;23.312;2022-09-01T06:08:18;18.80;90.30
5808;DHT22;2930;42.678;23.312;2022-09-01T06:10:44;18.90;90.40
5808;DHT22;2930;42.678;23.312;2022-09-01T06:13:11;19.00;90.60
5808;DHT22;2930;42.678;23.312;2022-09-01T06:15:40;19.10;90.50
5808;DHT22;2930;42.678;23.312;2022-09-01T06:18:10;19.20;90.10
5808;DHT22;2930;42.678;23.312;2022-09-01T06:20:43;19.20;90.10
5808;DHT22;2930;42.678;23.312;2022-09-01T06:23:10;19.30;89.60
5808;DHT22;2930;42.678;23.312;2022-09-01T06:25:40;19.30;89.90
5808;DHT22;2930;42.678;23.312;2022-09-01T06:28:07;19.40;89.80
5808;DHT22;2930;42.678;23.312;2022-09-01T06:30:36;19.50;89.70
5808;DHT22;2930;42.678;23.312;2022-09-01T06:33:03;19.50;89.50
5808;DHT22;2930;42.678;23.312;2022-09-01T06:35:34;19.60;89.20
5808;DHT22;2930;42.678;23.312;2022-09-01T06:38:00;19.60;89.50
5808;DHT22;2930;42.678;23.312;2022-09-01T06:40:27;19.70;89.30
5808;DHT22;2930;42.678;23.312;2022-09-01T06:42:53;19.70;89.40
5808;DHT22;2930;42.678;23.312;2022-09-01T06:45:21;19.70;89.30
5808;DHT22;2930;42.678;23.312;2022-09-01T06:47:49;19.80;89.20
5808;DHT22;2930;42.678;23.312;2022-09-01T06:50:20;19.90;89.20
5808;DHT22;2930;42.678;23.312;2022-09-01T06:52:47;19.90;89.00
5808;DHT22;2930;42.678;23.312;2022-09-01T06:55:29;20.00;89.00
5808;DHT22;2930;42.678;23.312;2022-09-01T06:57:58;20.10;89.40
5808;DHT22;2930;42.678;23.312;2022-09-01T07:00:24;20.10;88.80
5808;DHT22;2930;42.678;23.312;2022-09-01T07:02:55;20.20;88.90
5808;DHT22;2930;42.678;23.312;2022-09-01T07:05:22;20.20;88.40
5808;DHT22;2930;42.678;23.312;2022-09-01T07:07:49;20.30;88.80
5808;DHT22;2930;42.678;23.312;2022-09-01T07:10:19;20.30;88.80
5808;DHT22;2930;42.678;23.312;2022-09-01T07:12:51;20.40;88.70
5808;DHT22;2930;42.678;23.312;2022-09-01T07:15:17;20.50;88.30
5808;DHT22;2930;42.678;23.312;2022-09-01T07:17:49;20.60;88.50
5808;DHT22;2930;42.678;23.312;2022-09-01T07:20:17;20.70;88.00
5808;DHT22;2930;42.678;23.312;2022-09-01T07:22:46;20.80;88.30
5808;DHT22;2930;42.678;23.312;2022-09-01T07:25:12;20.90;88.10
5808;DHT22;2930;42.678;23.312;2022-09-01T07:27:40;21.00;87.70
5808;DHT22;2930;42.678;23.312;2022-09-01T07:30:16;21.00;86.80
5808;DHT22;2930;42.678;23.312;2022-09-01T07:32:43;21.10;86.70
5808;DHT22;2930;42.678;23.312;2022-09-01T07:35:13;21.20;87.00
5808;DHT22;2930;42.678;23.312;2022-09-01T07:37:39;21.20;86.90
5808;DHT22;2930;42.678;23.312;2022-09-01T07:40:07;21.30;87.00
5808;DHT22;2930;42.678;23.312;2022-09-01T07:42:33;21.40;86.70
5808;DHT22;2930;42.678;23.312;2022-09-01T07:44:58;21.40;86.90
5808;DHT22;2930;42.678;23.312;2022-09-01T07:47:25;21.50;86.90
5808;DHT22;2930;42.678;23.312;2022-09-01T07:49:53;21.60;86.50
5808;DHT22;2930;42.678;23.312;2022-09-01T07:52:18;21.70;86.40
5808;DHT22;2930;42.678;23.312;2022-09-01T07:54:44;21.80;86.50
5808;DHT22;2930;42.678;23.312;2022-09-01T07:57:10;21.90;85.20
5808;DHT22;2930;42.678;23.312;2022-09-01T07:59:36;21.90;85.20
5808;DHT22;2930;42.678;23.312;2022-09-01T08:02:02;22.00;84.30
5808;DHT22;2930;42.678;23.312;2022-09-01T08:04:31;22.20;84.30
5808;DHT22;2930;42.678;23.312;2022-09-01T08:06:58;22.20;83.90
5808;DHT22;2930;42.678;23.312;2022-09-01T08:09:24;22.30;84.30
5808;DHT22;2930;42.678;23.312;2022-09-01T08:11:50;22.30;84.30
5808;DHT22;2930;42.678;23.312;2022-09-01T08:14:16;22.40;84.60
5808;DHT22;2930;42.678;23.312;2022-09-01T08:16:42;22.50;84.60
5808;DHT22;2930;42.678;23.312;2022-09-01T08:19:08;22.60;84.50
5808;DHT22;2930;42.678;23.312;2022-09-01T08:21:33;22.70;84.40
5808;DHT22;2930;42.678;23.312;2022-09-01T08:23:59;22.90;84.30
5808;DHT22;2930;42.678;23.312;2022-09-01T08:26:25;23.00;83.60
5808;DHT22;2930;42.678;23.312;2022-09-01T08:28:52;23.20;83.60
5808;DHT22;2930;42.678;23.312;2022-09-01T08:31:19;23.30;83.40
5808;DHT22;2930;42.678;23.312;2022-09-01T08:33:46;23.50;82.50
5808;DHT22;2930;42.678;23.312;2022-09-01T08:36:14;23.70;82.00
5808;DHT22;2930;42.678;23.312;2022-09-01T08:38:41;23.90;81.30
5808;DHT22;2930;42.678;23.312;2022-09-01T08:44:00;24.00;80.30
5808;DHT22;2930;42.678;23.312;2022-09-01T08:46:34;24.20;79.80
5808;DHT22;2930;42.678;23.312;2022-09-01T08:49:18;24.40;78.70
5808;DHT22;2930;42.678;23.312;2022-09-01T08:54:31;24.80;77.90
5808;DHT22;2930;42.678;23.312;2022-09-01T08:57:05;25.20;77.40
5808;DHT22;2930;42.678;23.312;2022-09-01T08:59:31;25.50;75.80
5808;DHT22;2930;42.678;23.312;2022-09-01T09:05:07;26.50;73.80
5808;DHT22;2930;42.678;23.312;2022-09-01T09:07:46;27.10;73.70
5808;DHT22;2930;42.678;23.312;2022-09-01T09:13:11;28.30;71.40
5808;DHT22;2930;42.678;23.312;2022-09-01T09:15:58;29.10;68.50
5808;DHT22;2930;42.678;23.312;2022-09-01T09:18:48;29.90;68.10
5808;DHT22;2930;42.678;23.312;2022-09-01T09:24:05;31.80;66.80
5808;DHT22;2930;42.678;23.312;2022-09-01T09:26:31;32.60;66.20
5808;DHT22;2930;42.678;23.312;2022-09-01T09:28:57;33.40;63.30
5808;DHT22;2930;42.678;23.312;2022-09-01T09:33:53;34.50;60.10
5808;DHT22;2930;42.678;23.312;2022-09-01T09:36:29;34.60;60.20
5808;DHT22;2930;42.678;23.312;2022-09-01T09:39:21;34.90;60.00
5808;DHT22;2930;42.678;23.312;2022-09-01T09:42:09;35.40;59.30
5808;DHT22;2930;42.678;23.312;2022-09-01T09:44:48;36.00;59.50
5808;DHT22;2930;42.678;23.312;2022-09-01T09:47:37;36.50;54.70
5808;DHT22;2930;42.678;23.312;2022-09-01T09:50:23;36.60;54.80
5808;DHT22;2930;42.678;23.312;2022-09-01T09:52:51;36.80;54.00
5808;DHT22;2930;42.678;23.312;2022-09-01T09:55:23;37.10;55.60
5808;DHT22;2930;42.678;23.312;2022-09-01T09:57:51;37.30;57.40
5808;DHT22;2930;42.678;23.312;2022-09-01T10:00:30;37.40;56.70
5808;DHT22;2930;42.678;23.312;2022-09-01T10:08:10;38.00;54.90
5808;DHT22;2930;42.678;23.312;2022-09-01T10:10:45;38.30;55.30
5808;DHT22;2930;42.678;23.312;2022-09-01T10:13:17;38.50;53.30
5808;DHT22;2930;42.678;23.312;2022-09-01T10:15:47;38.70;53.20
5808;DHT22;2930;42.678;23.312;2022-09-01T10:18:26;38.80;52.60
5808;DHT22;2930;42.678;23.312;2022-09-01T10:21:02;38.70;53.70
5808;DHT22;2930;42.678;23.312;2022-09-01T10:23:30;38.70;54.70
5808;DHT22;2930;42.678;23.312;2022-09-01T10:26:10;38.90;54.90
5808;DHT22;2930;42.678;23.312;2022-09-01T10:31:19;39.80;55.90
5808;DHT22;2930;42.678;23.312;2022-09-01T10:33:45;40.20;54.30
5808;DHT22;2930;42.678;23.312;2022-09-01T10:36:12;40.50;53.90
5808;DHT22;2930;42.678;23.312;2022-09-01T10:38:38;40.30;53.20
5808;DHT22;2930;42.678;23.312;2022-09-01T10:41:06;40.20;53.80
5808;DHT22;2930;42.678;23.312;2022-09-01T10:43:39;40.30;50.50
5808;DHT22;2930;42.678;23.312;2022-09-01T10:48:53;40.10;48.10
5808;DHT22;2930;42.678;23.312;2022-09-01T10:53:51;39.40;53.10
5808;DHT22;2930;42.678;23.312;2022-09-01T11:04:18;39.30;52.00
5808;DHT22;2930;42.678;23.312;2022-09-01T11:09:24;39.60;50.00
5808;DHT22;2930;42.678;23.312;2022-09-01T11:14:24;39.40;51.50
5808;DHT22;2930;42.678;23.312;2022-09-01T11:17:32;39.10;49.30
5808;DHT22;2930;42.678;23.312;2022-09-01T11:20:07;39.00;48.80
5808;DHT22;2930;42.678;23.312;2022-09-01T11:25:40;38.20;49.10
5808;DHT22;2930;42.678;23.312;2022-09-01T11:28:34;37.60;50.80
5808;DHT22;2930;42.678;23.312;2022-09-01T11:44:51;36.30;51.80
5808;DHT22;2930;42.678;23.312;2022-09-01T11:47:28;36.30;53.30
5808;DHT22;2930;42.678;23.312;2022-09-01T11:50:24;36.40;53.80
5808;DHT22;2930;42.678;23.312;2022-09-01T11:52:58;36.60;51.10
5808;DHT22;2930;42.678;23.312;2022-09-01T11:55:51;36.90;53.40
5808;DHT22;2930;42.678;23.312;2022-09-01T12:00:57;37.90;50.70
5808;DHT22;2930;42.678;23.312;2022-09-01T12:03:29;38.50;50.30
5808;DHT22;2930;42.678;23.312;2022-09-01T12:06:00;38.70;52.30
5808;DHT22;2930;42.678;23.312;2022-09-01T12:08:35;38.90;52.20
5808;DHT22;2930;42.678;23.312;2022-09-01T12:11:11;39.20;52.70
5808;DHT22;2930;42.678;23.312;2022-09-01T12:13:39;39.20;49.10
5808;DHT22;2930;42.678;23.312;2022-09-01T12:16:08;39.40;50.40
5808;DHT22;2930;42.678;23.312;2022-09-01T12:18:42;39.40;48.30
5808;DHT22;2930;42.678;23.312;2022-09-01T12:21:24;39.50;48.30
5808;DHT22;2930;42.678;23.312;2022-09-01T12:23:52;39.10;49.10
5808;DHT22;2930;42.678;23.312;2022-09-01T12:26:26;38.90;50.60
5808;DHT22;2930;42.678;23.312;2022-09-01T12:28:53;38.70;51.60
5808;DHT22;2930;42.678;23.312;2022-09-01T12:31:23;38.70;50.70
5808;DHT22;2930;42.678;23.312;2022-09-01T12:33:50;38.40;49.50
5808;DHT22;2930;42.678;23.312;2022-09-01T12:36:24;38.00;51.00
5808;DHT22;2930;42.678;23.312;2022-09-01T12:38:52;37.90;52.00
5808;DHT22;2930;42.678;23.312;2022-09-01T12:41:30;37.30;54.70
5808;DHT22;2930;42.678;23.312;2022-09-01T12:47:00;36.50;52.50
5808;DHT22;2930;42.678;23.312;2022-09-01T12:49:35;35.90;54.60
5808;DHT22;2930;42.678;23.312;2022-09-01T12:54:31;35.00;55.50
5808;DHT22;2930;42.678;23.312;2022-09-01T12:56:57;34.50;56.10
5808;DHT22;2930;42.678;23.312;2022-09-01T12:59:24;34.30;57.90
5808;DHT22;2930;42.678;23.312;2022-09-01T13:01:51;34.00;56.90
5808;DHT22;2930;42.678;23.312;2022-09-01T13:06:47;33.70;57.00
5808;DHT22;2930;42.678;23.312;2022-09-01T13:09:13;33.60;57.50
5808;DHT22;2930;42.678;23.312;2022-09-01T13:11:39;33.40;58.10
5808;DHT22;2930;42.678;23.312;2022-09-01T13:14:07;33.30;57.90
5808;DHT22;2930;42.678;23.312;2022-09-01T13:16:33;33.40;58.60
5808;DHT22;2930;42.678;23.312;2022-09-01T13:19:00;33.60;57.50
5808;DHT22;2930;42.678;23.312;2022-09-01T13:21:26;33.80;58.10
5808;DHT22;2930;42.678;23.312;2022-09-01T13:23:53;34.00;57.40
5808;DHT22;2930;42.678;23.312;2022-09-01T13:26:18;34.20;57.20
5808;DHT22;2930;42.678;23.312;2022-09-01T13:28:44;34.40;56.60
5808;DHT22;2930;42.678;23.312;2022-09-01T13:31:11;34.40;56.20
5808;DHT22;2930;42.678;23.312;2022-09-01T13:33:38;34.30;57.10
5808;DHT22;2930;42.678;23.312;2022-09-01T13:36:05;34.20;57.40
5808;DHT22;2930;42.678;23.312;2022-09-01T13:38:31;34.20;57.50
5808;DHT22;2930;42.678;23.312;2022-09-01T13:40:57;34.40;56.30
5808;DHT22;2930;42.678;23.312;2022-09-01T13:43:24;34.40;57.70
5808;DHT22;2930;42.678;23.312;2022-09-01T13:45:52;34.40;58.00
5808;DHT22;2930;42.678;23.312;2022-09-01T13:48:18;34.60;56.60
5808;DHT22;2930;42.678;23.312;2022-09-01T13:50:46;34.60;55.90
5808;DHT22;2930;42.678;23.312;2022-09-01T13:53:14;34.60;55.90
5808;DHT22;2930;42.678;23.312;2022-09-01T13:55:41;34.40;56.30
5808;DHT22;2930;42.678;23.312;2022-09-01T13:58:07;34.10;56.80
5808;DHT22;2930;42.678;23.312;2022-09-01T14:00:37;33.60;58.00
5808;DHT22;2930;42.678;23.312;2022-09-01T14:03:13;33.20;58.60
5808;DHT22;2930;42.678;23.312;2022-09-01T14:05:42;32.70;58.20
5808;DHT22;2930;42.678;23.312;2022-09-01T14:08:09;32.10;58.30
5808;DHT22;2930;42.678;23.312;2022-09-01T14:10:43;31.50;58.70
5808;DHT22;2930;42.678;23.312;2022-09-01T14:13:11;31.10;59.70
5808;DHT22;2930;42.678;23.312;2022-09-01T14:15:38;30.60;60.10
5808;DHT22;2930;42.678;23.312;2022-09-01T14:18:05;30.30;60.30
5808;DHT22;2930;42.678;23.312;2022-09-01T14:20:36;30.00;61.10
5808;DHT22;2930;42.678;23.312;2022-09-01T14:23:05;29.80;62.00
5808;DHT22;2930;42.678;23.312;2022-09-01T14:25:33;29.50;62.40
5808;DHT22;2930;42.678;23.312;2022-09-01T14:28:01;29.30;63.40
5808;DHT22;2930;42.678;23.312;2022-09-01T14:30:30;28.90;64.70
5808;DHT22;2930;42.678;23.312;2022-09-01T14:32:58;28.90;64.40
5808;DHT22;2930;42.678;23.312;2022-09-01T14:35:25;28.60;65.20
5808;DHT22;2930;42.678;23.312;2022-09-01T14:37:52;28.60;65.40
5808;DHT22;2930;42.678;23.312;2022-09-01T14:40:20;28.50;65.30
5808;DHT22;2930;42.678;23.312;2022-09-01T14:42:48;28.50;65.70
5808;DHT22;2930;42.678;23.312;2022-09-01T14:45:21;28.40;66.50
5808;DHT22;2930;42.678;23.312;2022-09-01T14:47:50;28.30;66.40
5808;DHT22;2930;42.678;23.312;2022-09-01T14:50:18;28.20;66.20
5808;DHT22;2930;42.678;23.312;2022-09-01T14:52:47;28.20;66.30
5808;DHT22;2930;42.678;23.312;2022-09-01T14:55:13;28.10;66.00
5808;DHT22;2930;42.678;23.312;2022-09-01T14:57:40;28.10;66.80
5808;DHT22;2930;42.678;23.312;2022-09-01T15:00:08;28.10;66.50
5808;DHT22;2930;42.678;23.312;2022-09-01T15:02:35;28.00;66.50
5808;DHT22;2930;42.678;23.312;2022-09-01T15:05:03;27.90;66.50
5808;DHT22;2930;42.678;23.312;2022-09-01T15:07:29;28.00;67.00
5808;DHT22;2930;42.678;23.312;2022-09-01T15:09:54;28.00;66.40
5808;DHT22;2930;42.678;23.312;2022-09-01T15:12:23;28.00;66.50
5808;DHT22;2930;42.678;23.312;2022-09-01T15:14:49;28.00;66.30
5808;DHT22;2930;42.678;23.312;2022-09-01T15:17:16;28.00;66.20
5808;DHT22;2930;42.678;23.312;2022-09-01T15:19:44;28.10;66.10
5808;DHT22;2930;42.678;23.312;2022-09-01T15:22:10;28.10;66.00
5808;DHT22;2930;42.678;23.312;2022-09-01T15:24:37;28.10;66.30
5808;DHT22;2930;42.678;23.312;2022-09-01T15:27:02;28.10;66.10
5808;DHT22;2930;42.678;23.312;2022-09-01T15:29:31;28.20;66.00
5808;DHT22;2930;42.678;23.312;2022-09-01T15:31:59;28.20;65.80
5808;DHT22;2930;42.678;23.312;2022-09-01T15:34:26;28.20;65.60
5808;DHT22;2930;42.678;23.312;2022-09-01T15:36:52;28.20;65.90
5808;DHT22;2930;42.678;23.312;2022-09-01T15:39:18;28.20;66.20
5808;DHT22;2930;42.678;23.312;2022-09-01T15:41:44;28.20;66.10
5808;DHT22;2930;42.678;23.312;2022-09-01T15:44:10;28.10;66.80
5808;DHT22;2930;42.678;23.312;2022-09-01T15:46:37;28.10;67.10
5808;DHT22;2930;42.678;23.312;2022-09-01T15:49:08;27.90;67.40
5808;DHT22;2930;42.678;23.312;2022-09-01T15:51:44;27.90;67.30
5808;DHT22;2930;42.678;23.312;2022-09-01T15:54:14;27.80;67.50
5808;DHT22;2930;42.678;23.312;2022-09-01T15:56:41;27.70;67.20
5808;DHT22;2930;42.678;23.312;2022-09-01T15:59:08;27.60;67.40
5808;DHT22;2930;42.678;23.312;2022-09-01T16:01:42;27.60;68.80
5808;DHT22;2930;42.678;23.312;2022-09-01T16:04:11;27.40;68.20
5808;DHT22;2930;42.678;23.312;2022-09-01T16:06:39;27.30;68.90
5808;DHT22;2930;42.678;23.312;2022-09-01T16:09:07;27.20;69.40
5808;DHT22;2930;42.678;23.312;2022-09-01T16:11:34;27.10;69.40
5808;DHT22;2930;42.678;23.312;2022-09-01T16:14:02;27.00;69.70
5808;DHT22;2930;42.678;23.312;2022-09-01T16:24:44;26.50;70.40
5808;DHT22;2930;42.678;23.312;2022-09-01T16:27:14;26.40;70.50
5808;DHT22;2930;42.678;23.312;2022-09-01T16:29:43;26.40;70.60
5808;DHT22;2930;42.678;23.312;2022-09-01T16:32:12;26.40;70.80
5808;DHT22;2930;42.678;23.312;2022-09-01T16:34:40;26.40;72.30
5808;DHT22;2930;42.678;23.312;2022-09-01T16:40:17;26.20;72.20
5808;DHT22;2930;42.678;23.312;2022-09-01T16:43:00;26.10;72.30
5808;DHT22;2930;42.678;23.312;2022-09-01T17:02:02;25.30;74.50
5808;DHT22;2930;42.678;23.312;2022-09-01T17:05:15;25.20;74.10
5808;DHT22;2930;42.678;23.312;2022-09-01T17:10:40;25.00;75.30
5808;DHT22;2930;42.678;23.312;2022-09-01T17:13:37;24.90;74.20
5808;DHT22;2930;42.678;23.312;2022-09-01T17:16:31;24.80;74.00
5808;DHT22;2930;42.678;23.312;2022-09-01T17:19:04;24.70;75.50
5808;DHT22;2930;42.678;23.312;2022-09-01T17:26:55;24.40;77.30
5808;DHT22;2930;42.678;23.312;2022-09-01T17:29:38;24.40;76.90
5808;DHT22;2930;42.678;23.312;2022-09-01T17:32:15;24.40;77.50
5808;DHT22;2930;42.678;23.312;2022-09-01T17:43:48;23.90;78.60
5808;DHT22;2930;42.678;23.312;2022-09-01T17:46:40;23.90;79.00
5808;DHT22;2930;42.678;23.312;2022-09-01T17:52:03;23.70;78.60
5808;DHT22;2930;42.678;23.312;2022-09-01T18:00:05;23.40;81.20
5808;DHT22;2930;42.678;23.312;2022-09-01T18:05:10;23.30;80.60
5808;DHT22;2930;42.678;23.312;2022-09-01T18:10:19;23.20;80.40
5808;DHT22;2930;42.678;23.312;2022-09-01T18:12:48;23.20;80.00
5808;DHT22;2930;42.678;23.312;2022-09-01T18:15:20;23.20;79.30